sensor_id;sensor_type;location;lat;lon;timestamp;P1;durP1;ratioP1;P2;durP2;ratioP2
21420;SDS011;10871;50.144;8.428;2023-07-20T00:01:46;5.43;;;2.58;;
21420;SDS011;10871;50.144;8.428;2023-07-20T00:04:13;5.57;;;2.53;;
21420;SDS011;10871;50.144;8.428;2023-07-20T00:06:40;7.45;;;2.80;;
21420;SDS011;10871;50.144;8.428;2023-07-20T00:09:07;5.50;;;2.63;;
21420;SDS011;10871;50.144;8.428;2023-07-20T00:11:37;6.53;;;2.78;;
21420;SDS011;10871;50.144;8.428;2023-07-20T00:14:05;8.07;;;2.70;;
21420;SDS011;10871;50.144;8.428;2023-07-20T00:16:31;10.55;;;3.30;;
21420;SDS011;10871;50.144;8.428;2023-07-20T00:18:58;8.57;;;3.00;;
21420;SDS011;10871;50.144;8.428;2023-07-20T00:21:25;4.57;;;2.55;;
21420;SDS011;10871;50.144;8.428;2023-07-20T00:23:52;4.22;;;2.60;;
21420;SDS011;10871;50.144;8.428;2023-07-20T00:26:18;5.15;;;2.50;;
21420;SDS011;10871;50.144;8.428;2023-07-20T00:28:45;3.95;;;2.42;;
21420;SDS011;10871;50.144;8.428;2023-07-20T00:31:11;5.00;;;2.65;;
21420;SDS011;10871;50.144;8.428;2023-07-20T00:33:38;5.05;;;2.78;;
21420;SDS011;10871;50.144;8.428;2023-07-20T00:36:05;5.85;;;2.63;;
21420;SDS011;10871;50.144;8.428;2023-07-20T00:38:31;4.90;;;2.72;;
21420;SDS011;10871;50.144;8.428;2023-07-20T00:40:59;7.28;;;2.97;;
21420;SDS011;10871;50.144;8.428;2023-07-20T00:43:26;5.82;;;2.55;;
21420;SDS011;10871;50.144;8.428;2023-07-20T00:45:52;7.63;;;3.17;;
21420;SDS011;10871;50.144;8.428;2023-07-20T00:48:19;5.57;;;2.63;;
21420;SDS011;10871;50.144;8.428;2023-07-20T00:50:46;8.68;;;2.80;;
21420;SDS011;10871;50.144;8.428;2023-07-20T00:53:13;5.72;;;2.80;;
21420;SDS011;10871;50.144;8.428;2023-07-20T00:55:40;6.47;;;2.90;;
21420;SDS011;10871;50.144;8.428;2023-07-20T00:58:07;4.30;;;2.75;;
21420;SDS011;10871;50.144;8.428;2023-07-20T01:00:35;7.35;;;2.72;;
21420;SDS011;10871;50.144;8.428;2023-07-20T01:03:01;6.57;;;2.60;;
21420;SDS011;10871;50.144;8.428;2023-07-20T01:05:37;8.20;;;3.10;;
21420;SDS011;10871;50.144;8.428;2023-07-20T01:08:11;4.85;;;2.88;;
21420;SDS011;10871;50.144;8.428;2023-07-20T01:10:54;7.88;;;2.83;;
21420;SDS011;10871;50.144;8.428;2023-07-20T01:13:25;7.72;;;3.08;;
21420;SDS011;10871;50.144;8.428;2023-07-20T01:16:01;7.35;;;2.88;;
21420;SDS011;10871;50.144;8.428;2023-07-20T01:18:28;7.10;;;2.95;;
21420;SDS011;10871;50.144;8.428;2023-07-20T01:20:57;7.60;;;3.38;;
21420;SDS011;10871;50.144;8.428;2023-07-20T01:31:25;5.07;;;2.72;;
21420;SDS011;10871;50.144;8.428;2023-07-20T01:33:54;6.70;;;3.00;;
21420;SDS011;10871;50.144;8.428;2023-07-20T01:36:23;5.38;;;2.70;;
21420;SDS011;10871;50.144;8.428;2023-07-20T01:38:51;6.70;;;3.10;;
21420;SDS011;10871;50.144;8.428;2023-07-20T01:41:18;8.48;;;3.50;;
21420;SDS011;10871;50.144;8.428;2023-07-20T01:43:45;6.70;;;3.90;;
21420;SDS011;10871;50.144;8.428;2023-07-20T01:46:12;6.22;;;2.80;;
21420;SDS011;10871;50.144;8.428;2023-07-20T01:48:39;7.15;;;2.70;;
21420;SDS011;10871;50.144;8.428;2023-07-20T01:51:07;8.40;;;2.92;;
21420;SDS011;10871;50.144;8.428;2023-07-20T01:53:33;5.93;;;2.90;;
21420;SDS011;10871;50.144;8.428;2023-07-20T01:56:00;4.07;;;2.50;;
21420;SDS011;10871;50.144;8.428;2023-07-20T01:58:27;6.93;;;3.10;;
21420;SDS011;10871;50.144;8.428;2023-07-20T02:00:54;6.97;;;3.28;;
21420;SDS011;10871;50.144;8.428;2023-07-20T02:03:21;7.65;;;2.90;;
21420;SDS011;10871;50.144;8.428;2023-07-20T02:05:48;8.50;;;3.25;;
21420;SDS011;10871;50.144;8.428;2023-07-20T02:08:15;6.30;;;2.72;;
21420;SDS011;10871;50.144;8.428;2023-07-20T02:10:44;5.68;;;3.30;;
21420;SDS011;10871;50.144;8.428;2023-07-20T02:13:11;4.68;;;2.63;;
21420;SDS011;10871;50.144;8.428;2023-07-20T02:15:37;5.40;;;2.80;;
21420;SDS011;10871;50.144;8.428;2023-07-20T02:18:04;7.00;;;3.20;;
21420;SDS011;10871;50.144;8.428;2023-07-20T02:20:33;6.30;;;2.70;;
21420;SDS011;10871;50.144;8.428;2023-07-20T02:23:00;7.13;;;3.03;;
21420;SDS011;10871;50.144;8.428;2023-07-20T02:25:26;7.43;;;2.60;;
21420;SDS011;10871;50.144;8.428;2023-07-20T02:27:53;7.70;;;3.45;;
21420;SDS011;10871;50.144;8.428;2023-07-20T02:30:19;6.68;;;3.03;;
21420;SDS011;10871;50.144;8.428;2023-07-20T02:32:46;5.13;;;3.55;;
21420;SDS011;10871;50.144;8.428;2023-07-20T02:35:15;5.47;;;2.83;;
21420;SDS011;10871;50.144;8.428;2023-07-20T02:37:43;5.95;;;3.28;;
21420;SDS011;10871;50.144;8.428;2023-07-20T02:40:10;7.07;;;3.00;;
21420;SDS011;10871;50.144;8.428;2023-07-20T02:42:37;6.40;;;3.25;;
21420;SDS011;10871;50.144;8.428;2023-07-20T02:45:04;5.15;;;2.72;;
21420;SDS011;10871;50.144;8.428;2023-07-20T02:47:31;8.60;;;3.00;;
21420;SDS011;10871;50.144;8.428;2023-07-20T02:49:58;4.97;;;2.95;;
21420;SDS011;10871;50.144;8.428;2023-07-20T02:52:25;7.53;;;3.28;;
21420;SDS011;10871;50.144;8.428;2023-07-20T02:54:52;5.43;;;3.17;;
21420;SDS011;10871;50.144;8.428;2023-07-20T02:57:18;4.97;;;3.05;;
21420;SDS011;10871;50.144;8.428;2023-07-20T02:59:46;5.72;;;2.72;;
21420;SDS011;10871;50.144;8.428;2023-07-20T03:02:13;4.88;;;3.17;;
21420;SDS011;10871;50.144;8.428;2023-07-20T03:04:40;6.13;;;3.10;;
21420;SDS011;10871;50.144;8.428;2023-07-20T03:07:07;11.75;;;3.38;;
21420;SDS011;10871;50.144;8.428;2023-07-20T03:09:34;6.38;;;3.13;;
21420;SDS011;10871;50.144;8.428;2023-07-20T03:12:01;7.18;;;3.00;;
21420;SDS011;10871;50.144;8.428;2023-07-20T03:14:28;7.05;;;3.35;;
21420;SDS011;10871;50.144;8.428;2023-07-20T03:16:55;6.75;;;2.97;;
21420;SDS011;10871;50.144;8.428;2023-07-20T03:19:22;7.15;;;4.05;;
21420;SDS011;10871;50.144;8.428;2023-07-20T03:21:48;7.65;;;3.30;;
21420;SDS011;10871;50.144;8.428;2023-07-20T03:24:15;11.55;;;4.82;;
21420;SDS011;10871;50.144;8.428;2023-07-20T03:26:46;5.80;;;2.80;;
21420;SDS011;10871;50.144;8.428;2023-07-20T03:29:12;6.47;;;2.90;;
21420;SDS011;10871;50.144;8.428;2023-07-20T03:31:39;4.47;;;2.80;;
21420;SDS011;10871;50.144;8.428;2023-07-20T03:34:07;6.53;;;3.10;;
21420;SDS011;10871;50.144;8.428;2023-07-20T03:36:35;6.47;;;3.38;;
21420;SDS011;10871;50.144;8.428;2023-07-20T03:39:02;6.03;;;3.20;;
21420;SDS011;10871;50.144;8.428;2023-07-20T03:41:29;6.50;;;3.58;;
21420;SDS011;10871;50.144;8.428;2023-07-20T03:43:56;4.43;;;2.80;;
21420;SDS011;10871;50.144;8.428;2023-07-20T03:46:23;6.93;;;3.08;;
21420;SDS011;10871;50.144;8.428;2023-07-20T03:48:50;5.50;;;2.70;;
21420;SDS011;10871;50.144;8.428;2023-07-20T03:51:17;4.88;;;3.33;;
21420;SDS011;10871;50.144;8.428;2023-07-20T03:53:43;8.23;;;3.20;;
21420;SDS011;10871;50.144;8.428;2023-07-20T03:56:10;8.60;;;3.50;;
21420;SDS011;10871;50.144;8.428;2023-07-20T03:58:36;5.70;;;2.90;;
21420;SDS011;10871;50.144;8.428;2023-07-20T04:01:03;5.32;;;2.80;;
21420;SDS011;10871;50.144;8.428;2023-07-20T04:03:30;5.65;;;3.10;;
21420;SDS011;10871;50.144;8.428;2023-07-20T04:05:57;6.47;;;3.00;;
21420;SDS011;10871;50.144;8.428;2023-07-20T04:08:23;8.40;;;3.30;;
21420;SDS011;10871;50.144;8.428;2023-07-20T04:10:50;6.40;;;2.80;;
21420;SDS011;10871;50.144;8.428;2023-07-20T04:13:18;6.45;;;3.00;;
21420;SDS011;10871;50.144;8.428;2023-07-20T04:15:44;6.03;;;2.97;;
21420;SDS011;10871;50.144;8.428;2023-07-20T04:18:11;9.25;;;3.22;;
21420;SDS011;10871;50.144;8.428;2023-07-20T04:20:38;8.93;;;3.33;;
21420;SDS011;10871;50.144;8.428;2023-07-20T04:23:04;5.03;;;2.90;;
21420;SDS011;10871;50.144;8.428;2023-07-20T04:25:31;6.80;;;2.90;;
21420;SDS011;10871;50.144;8.428;2023-07-20T04:28:08;8.77;;;3.22;;
21420;SDS011;10871;50.144;8.428;2023-07-20T04:30:38;5.13;;;2.95;;
21420;SDS011;10871;50.144;8.428;2023-07-20T04:33:08;5.65;;;2.65;;
21420;SDS011;10871;50.144;8.428;2023-07-20T04:35:44;5.95;;;3.20;;
21420;SDS011;10871;50.144;8.428;2023-07-20T04:38:13;7.25;;;3.35;;
21420;SDS011;10871;50.144;8.428;2023-07-20T04:40:42;4.72;;;2.67;;
21420;SDS011;10871;50.144;8.428;2023-07-20T04:43:10;4.93;;;2.85;;
21420;SDS011;10871;50.144;8.428;2023-07-20T04:45:38;6.65;;;3.03;;
21420;SDS011;10871;50.144;8.428;2023-07-20T04:48:08;4.97;;;2.90;;
21420;SDS011;10871;50.144;8.428;2023-07-20T04:50:43;6.57;;;2.63;;
21420;SDS011;10871;50.144;8.428;2023-07-20T04:53:12;4.32;;;2.92;;
21420;SDS011;10871;50.144;8.428;2023-07-20T04:55:39;6.07;;;2.70;;
21420;SDS011;10871;50.144;8.428;2023-07-20T04:58:07;6.70;;;2.92;;
21420;SDS011;10871;50.144;8.428;2023-07-20T05:00:37;6.03;;;3.30;;
21420;SDS011;10871;50.144;8.428;2023-07-20T05:03:05;3.75;;;2.70;;
21420;SDS011;10871;50.144;8.428;2023-07-20T05:05:33;4.57;;;3.00;;
21420;SDS011;10871;50.144;8.428;2023-07-20T05:08:00;4.10;;;2.83;;
21420;SDS011;10871;50.144;8.428;2023-07-20T05:10:27;4.15;;;2.72;;
21420;SDS011;10871;50.144;8.428;2023-07-20T05:12:54;7.63;;;2.92;;
21420;SDS011;10871;50.144;8.428;2023-07-20T05:15:20;9.55;;;3.03;;
21420;SDS011;10871;50.144;8.428;2023-07-20T05:17:47;7.93;;;3.20;;
21420;SDS011;10871;50.144;8.428;2023-07-20T05:20:15;7.10;;;2.88;;
21420;SDS011;10871;50.144;8.428;2023-07-20T05:22:42;3.85;;;2.92;;
21420;SDS011;10871;50.144;8.428;2023-07-20T05:25:09;4.88;;;2.70;;
21420;SDS011;10871;50.144;8.428;2023-07-20T05:27:36;7.65;;;2.90;;
21420;SDS011;10871;50.144;8.428;2023-07-20T05:30:03;7.15;;;2.88;;
21420;SDS011;10871;50.144;8.428;2023-07-20T05:32:30;5.32;;;2.75;;
21420;SDS011;10871;50.144;8.428;2023-07-20T05:34:57;6.32;;;2.88;;
21420;SDS011;10871;50.144;8.428;2023-07-20T05:37:23;5.93;;;2.97;;
21420;SDS011;10871;50.144;8.428;2023-07-20T05:39:50;5.53;;;2.85;;
21420;SDS011;10871;50.144;8.428;2023-07-20T05:42:17;5.05;;;2.60;;
21420;SDS011;10871;50.144;8.428;2023-07-20T05:44:43;4.43;;;2.58;;
21420;SDS011;10871;50.144;8.428;2023-07-20T05:47:10;5.22;;;2.85;;
21420;SDS011;10871;50.144;8.428;2023-07-20T05:49:36;7.35;;;2.95;;
21420;SDS011;10871;50.144;8.428;2023-07-20T05:52:03;6.45;;;3.00;;
21420;SDS011;10871;50.144;8.428;2023-07-20T05:54:30;3.75;;;2.53;;
21420;SDS011;10871;50.144;8.428;2023-07-20T05:56:56;6.18;;;3.05;;
21420;SDS011;10871;50.144;8.428;2023-07-20T05:59:24;6.97;;;2.95;;
21420;SDS011;10871;50.144;8.428;2023-07-20T06:01:51;6.88;;;2.53;;
21420;SDS011;10871;50.144;8.428;2023-07-20T06:04:17;4.20;;;2.40;;
21420;SDS011;10871;50.144;8.428;2023-07-20T06:06:44;6.03;;;2.80;;
21420;SDS011;10871;50.144;8.428;2023-07-20T06:09:11;5.25;;;2.60;;
21420;SDS011;10871;50.144;8.428;2023-07-20T06:11:38;4.53;;;2.60;;
21420;SDS011;10871;50.144;8.428;2023-07-20T06:14:08;4.43;;;2.70;;
21420;SDS011;10871;50.144;8.428;2023-07-20T06:16:34;6.25;;;2.63;;
21420;SDS011;10871;50.144;8.428;2023-07-20T06:19:01;5.45;;;2.78;;
21420;SDS011;10871;50.144;8.428;2023-07-20T06:21:28;5.45;;;2.50;;
21420;SDS011;10871;50.144;8.428;2023-07-20T06:23:54;6.68;;;3.40;;
21420;SDS011;10871;50.144;8.428;2023-07-20T06:26:21;4.20;;;2.85;;
21420;SDS011;10871;50.144;8.428;2023-07-20T06:28:48;6.30;;;2.80;;
21420;SDS011;10871;50.144;8.428;2023-07-20T06:31:18;8.50;;;2.58;;
21420;SDS011;10871;50.144;8.428;2023-07-20T06:33:45;4.38;;;2.78;;
21420;SDS011;10871;50.144;8.428;2023-07-20T06:36:11;8.48;;;3.25;;
21420;SDS011;10871;50.144;8.428;2023-07-20T06:38:38;7.22;;;3.40;;
21420;SDS011;10871;50.144;8.428;2023-07-20T06:41:05;5.28;;;3.15;;
21420;SDS011;10871;50.144;8.428;2023-07-20T06:43:34;5.03;;;2.92;;
21420;SDS011;10871;50.144;8.428;2023-07-20T06:46:04;8.00;;;2.88;;
21420;SDS011;10871;50.144;8.428;2023-07-20T06:48:31;4.68;;;2.60;;
21420;SDS011;10871;50.144;8.428;2023-07-20T06:50:57;9.13;;;3.17;;
21420;SDS011;10871;50.144;8.428;2023-07-20T06:53:24;5.80;;;2.88;;
21420;SDS011;10871;50.144;8.428;2023-07-20T06:55:50;4.68;;;2.97;;
21420;SDS011;10871;50.144;8.428;2023-07-20T06:58:17;8.55;;;2.97;;
21420;SDS011;10871;50.144;8.428;2023-07-20T07:00:44;8.25;;;2.95;;
21420;SDS011;10871;50.144;8.428;2023-07-20T07:03:11;6.30;;;3.20;;
21420;SDS011;10871;50.144;8.428;2023-07-20T07:05:37;11.77;;;3.88;;
21420;SDS011;10871;50.144;8.428;2023-07-20T07:08:04;5.55;;;2.88;;
21420;SDS011;10871;50.144;8.428;2023-07-20T07:10:31;5.75;;;3.13;;
21420;SDS011;10871;50.144;8.428;2023-07-20T07:12:58;4.15;;;2.75;;
21420;SDS011;10871;50.144;8.428;2023-07-20T07:15:24;4.05;;;2.55;;
21420;SDS011;10871;50.144;8.428;2023-07-20T07:17:54;4.80;;;3.13;;
21420;SDS011;10871;50.144;8.428;2023-07-20T07:20:20;7.30;;;3.15;;
21420;SDS011;10871;50.144;8.428;2023-07-20T07:22:47;6.15;;;2.75;;
21420;SDS011;10871;50.144;8.428;2023-07-20T07:25:19;3.60;;;2.80;;
21420;SDS011;10871;50.144;8.428;2023-07-20T07:27:49;5.28;;;3.08;;
21420;SDS011;10871;50.144;8.428;2023-07-20T07:30:15;9.50;;;3.30;;
21420;SDS011;10871;50.144;8.428;2023-07-20T07:32:42;6.15;;;2.85;;
21420;SDS011;10871;50.144;8.428;2023-07-20T07:35:08;5.10;;;3.13;;
21420;SDS011;10871;50.144;8.428;2023-07-20T07:37:35;8.38;;;3.15;;
21420;SDS011;10871;50.144;8.428;2023-07-20T07:40:22;5.68;;;2.92;;
21420;SDS011;10871;50.144;8.428;2023-07-20T07:42:49;7.78;;;3.13;;
21420;SDS011;10871;50.144;8.428;2023-07-20T07:45:16;6.03;;;3.25;;
21420;SDS011;10871;50.144;8.428;2023-07-20T07:47:43;3.70;;;3.05;;
21420;SDS011;10871;50.144;8.428;2023-07-20T07:50:09;6.47;;;2.72;;
21420;SDS011;10871;50.144;8.428;2023-07-20T07:52:37;5.03;;;2.92;;
21420;SDS011;10871;50.144;8.428;2023-07-20T07:55:04;4.13;;;2.83;;
21420;SDS011;10871;50.144;8.428;2023-07-20T07:57:31;7.43;;;2.95;;
21420;SDS011;10871;50.144;8.428;2023-07-20T07:59:57;4.97;;;2.92;;
21420;SDS011;10871;50.144;8.428;2023-07-20T08:02:24;3.63;;;3.13;;
21420;SDS011;10871;50.144;8.428;2023-07-20T08:04:52;5.28;;;2.95;;
21420;SDS011;10871;50.144;8.428;2023-07-20T08:07:19;5.35;;;3.10;;
21420;SDS011;10871;50.144;8.428;2023-07-20T08:09:46;4.70;;;3.05;;
21420;SDS011;10871;50.144;8.428;2023-07-20T08:12:13;5.57;;;3.75;;
21420;SDS011;10871;50.144;8.428;2023-07-20T08:14:40;6.35;;;4.88;;
21420;SDS011;10871;50.144;8.428;2023-07-20T08:17:06;4.07;;;3.45;;
21420;SDS011;10871;50.144;8.428;2023-07-20T08:19:33;8.27;;;3.63;;
21420;SDS011;10871;50.144;8.428;2023-07-20T08:22:03;5.40;;;2.63;;
21420;SDS011;10871;50.144;8.428;2023-07-20T08:24:30;5.05;;;2.60;;
21420;SDS011;10871;50.144;8.428;2023-07-20T08:26:56;5.13;;;2.33;;
21420;SDS011;10871;50.144;8.428;2023-07-20T08:29:23;4.40;;;2.60;;
21420;SDS011;10871;50.144;8.428;2023-07-20T08:31:50;4.60;;;2.60;;
21420;SDS011;10871;50.144;8.428;2023-07-20T08:34:18;5.57;;;2.25;;
21420;SDS011;10871;50.144;8.428;2023-07-20T08:36:57;3.67;;;2.47;;
21420;SDS011;10871;50.144;8.428;2023-07-20T08:39:23;3.72;;;2.80;;
21420;SDS011;10871;50.144;8.428;2023-07-20T08:41:50;5.75;;;2.63;;
21420;SDS011;10871;50.144;8.428;2023-07-20T08:44:20;4.40;;;2.47;;
21420;SDS011;10871;50.144;8.428;2023-07-20T08:46:46;6.75;;;2.75;;
21420;SDS011;10871;50.144;8.428;2023-07-20T08:49:15;4.28;;;2.47;;
21420;SDS011;10871;50.144;8.428;2023-07-20T08:51:42;5.93;;;2.30;;
21420;SDS011;10871;50.144;8.428;2023-07-20T08:54:09;5.15;;;2.88;;
21420;SDS011;10871;50.144;8.428;2023-07-20T08:56:38;5.43;;;2.85;;
21420;SDS011;10871;50.144;8.428;2023-07-20T08:59:07;5.22;;;2.25;;
21420;SDS011;10871;50.144;8.428;2023-07-20T09:01:34;5.22;;;2.50;;
21420;SDS011;10871;50.144;8.428;2023-07-20T09:04:02;6.03;;;2.60;;
21420;SDS011;10871;50.144;8.428;2023-07-20T09:06:29;3.70;;;2.55;;
21420;SDS011;10871;50.144;8.428;2023-07-20T09:08:57;3.50;;;2.08;;
21420;SDS011;10871;50.144;8.428;2023-07-20T09:11:24;6.57;;;2.58;;
21420;SDS011;10871;50.144;8.428;2023-07-20T09:14:04;4.10;;;2.83;;
21420;SDS011;10871;50.144;8.428;2023-07-20T09:16:31;5.20;;;2.63;;
21420;SDS011;10871;50.144;8.428;2023-07-20T09:18:58;4.63;;;2.60;;
21420;SDS011;10871;50.144;8.428;2023-07-20T09:21:29;4.28;;;2.80;;
21420;SDS011;10871;50.144;8.428;2023-07-20T09:23:56;4.25;;;2.78;;
21420;SDS011;10871;50.144;8.428;2023-07-20T09:26:23;3.50;;;2.40;;
21420;SDS011;10871;50.144;8.428;2023-07-20T09:28:53;3.40;;;2.50;;
21420;SDS011;10871;50.144;8.428;2023-07-20T09:31:22;7.63;;;2.78;;
21420;SDS011;10871;50.144;8.428;2023-07-20T09:33:50;3.65;;;2.38;;
21420;SDS011;10871;50.144;8.428;2023-07-20T09:36:21;4.30;;;2.50;;
21420;SDS011;10871;50.144;8.428;2023-07-20T09:39:07;4.43;;;2.95;;
21420;SDS011;10871;50.144;8.428;2023-07-20T09:41:40;3.10;;;2.75;;
21420;SDS011;10871;50.144;8.428;2023-07-20T09:44:13;7.00;;;6.38;;
21420;SDS011;10871;50.144;8.428;2023-07-20T09:46:44;9.43;;;5.22;;
21420;SDS011;10871;50.144;8.428;2023-07-20T09:49:14;4.40;;;2.40;;
21420;SDS011;10871;50.144;8.428;2023-07-20T09:51:44;4.43;;;2.50;;
21420;SDS011;10871;50.144;8.428;2023-07-20T09:54:13;5.18;;;2.90;;
21420;SDS011;10871;50.144;8.428;2023-07-20T09:56:42;6.13;;;2.38;;
21420;SDS011;10871;50.144;8.428;2023-07-20T09:59:08;4.85;;;2.60;;
21420;SDS011;10871;50.144;8.428;2023-07-20T10:01:35;5.10;;;2.72;;
21420;SDS011;10871;50.144;8.428;2023-07-20T10:04:05;3.67;;;2.40;;
21420;SDS011;10871;50.144;8.428;2023-07-20T10:06:33;6.03;;;2.63;;
21420;SDS011;10871;50.144;8.428;2023-07-20T10:09:03;4.72;;;2.45;;
21420;SDS011;10871;50.144;8.428;2023-07-20T10:11:30;4.70;;;2.55;;
21420;SDS011;10871;50.144;8.428;2023-07-20T10:13:58;6.97;;;2.70;;
21420;SDS011;10871;50.144;8.428;2023-07-20T10:16:27;2.85;;;2.58;;
21420;SDS011;10871;50.144;8.428;2023-07-20T10:21:20;4.07;;;2.50;;
21420;SDS011;10871;50.144;8.428;2023-07-20T10:23:52;2.42;;;1.70;;
21420;SDS011;10871;50.144;8.428;2023-07-20T10:26:21;4.10;;;2.28;;
21420;SDS011;10871;50.144;8.428;2023-07-20T10:28:49;2.33;;;1.95;;
21420;SDS011;10871;50.144;8.428;2023-07-20T10:31:16;2.80;;;2.00;;
21420;SDS011;10871;50.144;8.428;2023-07-20T10:33:43;3.20;;;2.03;;
21420;SDS011;10871;50.144;8.428;2023-07-20T10:36:11;2.63;;;1.83;;
21420;SDS011;10871;50.144;8.428;2023-07-20T10:38:40;3.58;;;2.05;;
21420;SDS011;10871;50.144;8.428;2023-07-20T10:43:43;4.88;;;2.08;;
21420;SDS011;10871;50.144;8.428;2023-07-20T10:46:11;5.50;;;2.30;;
21420;SDS011;10871;50.144;8.428;2023-07-20T10:51:23;5.93;;;2.53;;
21420;SDS011;10871;50.144;8.428;2023-07-20T10:53:50;4.68;;;2.30;;
21420;SDS011;10871;50.144;8.428;2023-07-20T10:56:21;3.40;;;2.22;;
21420;SDS011;10871;50.144;8.428;2023-07-20T10:58:49;4.50;;;2.47;;
21420;SDS011;10871;50.144;8.428;2023-07-20T11:01:16;5.88;;;2.35;;
21420;SDS011;10871;50.144;8.428;2023-07-20T11:03:48;2.20;;;2.00;;
21420;SDS011;10871;50.144;8.428;2023-07-20T11:09:07;3.33;;;1.83;;
21420;SDS011;10871;50.144;8.428;2023-07-20T11:11:37;3.38;;;2.47;;
21420;SDS011;10871;50.144;8.428;2023-07-20T11:14:05;2.90;;;2.13;;
21420;SDS011;10871;50.144;8.428;2023-07-20T11:16:45;4.40;;;2.30;;
21420;SDS011;10871;50.144;8.428;2023-07-20T11:22:02;4.25;;;2.30;;
21420;SDS011;10871;50.144;8.428;2023-07-20T11:24:31;5.00;;;2.13;;
21420;SDS011;10871;50.144;8.428;2023-07-20T11:26:58;4.03;;;2.00;;
21420;SDS011;10871;50.144;8.428;2023-07-20T11:29:25;3.50;;;2.15;;
21420;SDS011;10871;50.144;8.428;2023-07-20T11:31:55;4.45;;;2.55;;
21420;SDS011;10871;50.144;8.428;2023-07-20T11:34:22;3.13;;;1.90;;
21420;SDS011;10871;50.144;8.428;2023-07-20T11:36:50;2.75;;;1.95;;
21420;SDS011;10871;50.144;8.428;2023-07-20T11:39:21;3.45;;;1.90;;
21420;SDS011;10871;50.144;8.428;2023-07-20T11:41:55;3.08;;;1.67;;
21420;SDS011;10871;50.144;8.428;2023-07-20T11:44:22;3.45;;;1.90;;
21420;SDS011;10871;50.144;8.428;2023-07-20T11:47:09;3.03;;;2.17;;
21420;SDS011;10871;50.144;8.428;2023-07-20T11:49:38;4.10;;;1.85;;
21420;SDS011;10871;50.144;8.428;2023-07-20T11:52:06;1.80;;;1.60;;
21420;SDS011;10871;50.144;8.428;2023-07-20T11:54:34;3.00;;;1.75;;
21420;SDS011;10871;50.144;8.428;2023-07-20T11:57:01;2.38;;;1.83;;
21420;SDS011;10871;50.144;8.428;2023-07-20T11:59:28;3.65;;;1.92;;
21420;SDS011;10871;50.144;8.428;2023-07-20T12:01:55;5.03;;;1.90;;
21420;SDS011;10871;50.144;8.428;2023-07-20T12:04:25;2.95;;;1.92;;
21420;SDS011;10871;50.144;8.428;2023-07-20T12:06:52;3.30;;;1.90;;
21420;SDS011;10871;50.144;8.428;2023-07-20T12:09:19;2.10;;;1.70;;
21420;SDS011;10871;50.144;8.428;2023-07-20T12:11:48;6.72;;;1.67;;
21420;SDS011;10871;50.144;8.428;2023-07-20T12:14:15;3.95;;;2.10;;
21420;SDS011;10871;50.144;8.428;2023-07-20T12:16:43;2.42;;;1.70;;
21420;SDS011;10871;50.144;8.428;2023-07-20T12:19:13;2.53;;;1.63;;
21420;SDS011;10871;50.144;8.428;2023-07-20T12:21:40;3.50;;;1.92;;
21420;SDS011;10871;50.144;8.428;2023-07-20T12:24:08;2.95;;;1.75;;
21420;SDS011;10871;50.144;8.428;2023-07-20T12:26:36;3.10;;;1.70;;
21420;SDS011;10871;50.144;8.428;2023-07-20T12:29:04;3.63;;;1.65;;
21420;SDS011;10871;50.144;8.428;2023-07-20T12:31:34;2.13;;;1.80;;
21420;SDS011;10871;50.144;8.428;2023-07-20T12:34:02;2.97;;;1.75;;
21420;SDS011;10871;50.144;8.428;2023-07-20T12:36:30;3.33;;;1.73;;
21420;SDS011;10871;50.144;8.428;2023-07-20T12:38:57;2.58;;;1.70;;
21420;SDS011;10871;50.144;8.428;2023-07-20T12:41:24;3.92;;;1.60;;
21420;SDS011;10871;50.144;8.428;2023-07-20T12:43:51;4.07;;;1.60;;
21420;SDS011;10871;50.144;8.428;2023-07-20T12:46:19;2.78;;;1.50;;
21420;SDS011;10871;50.144;8.428;2023-07-20T12:48:46;2.40;;;1.50;;
21420;SDS011;10871;50.144;8.428;2023-07-20T12:51:15;2.28;;;1.70;;
21420;SDS011;10871;50.144;8.428;2023-07-20T12:53:41;2.33;;;1.70;;
21420;SDS011;10871;50.144;8.428;2023-07-20T12:56:11;1.88;;;1.65;;
21420;SDS011;10871;50.144;8.428;2023-07-20T12:58:43;4.27;;;1.73;;
21420;SDS011;10871;50.144;8.428;2023-07-20T13:01:09;2.75;;;2.03;;
21420;SDS011;10871;50.144;8.428;2023-07-20T13:03:37;2.33;;;1.90;;
21420;SDS011;10871;50.144;8.428;2023-07-20T13:06:25;2.85;;;1.73;;
21420;SDS011;10871;50.144;8.428;2023-07-20T13:08:54;3.15;;;1.52;;
21420;SDS011;10871;50.144;8.428;2023-07-20T13:11:22;1.65;;;1.50;;
21420;SDS011;10871;50.144;8.428;2023-07-20T13:13:50;3.92;;;1.90;;
21420;SDS011;10871;50.144;8.428;2023-07-20T13:16:16;2.28;;;1.75;;
21420;SDS011;10871;50.144;8.428;2023-07-20T13:18:44;4.90;;;2.20;;
21420;SDS011;10871;50.144;8.428;2023-07-20T13:21:11;2.15;;;1.65;;
21420;SDS011;10871;50.144;8.428;2023-07-20T13:23:38;2.83;;;2.00;;
21420;SDS011;10871;50.144;8.428;2023-07-20T13:26:05;2.28;;;1.70;;
21420;SDS011;10871;50.144;8.428;2023-07-20T13:28:31;2.42;;;1.70;;
21420;SDS011;10871;50.144;8.428;2023-07-20T13:30:58;2.25;;;1.60;;
21420;SDS011;10871;50.144;8.428;2023-07-20T13:33:25;5.80;;;1.80;;
21420;SDS011;10871;50.144;8.428;2023-07-20T13:35:54;2.13;;;1.88;;
21420;SDS011;10871;50.144;8.428;2023-07-20T13:38:20;3.20;;;1.70;;
21420;SDS011;10871;50.144;8.428;2023-07-20T13:40:48;2.75;;;1.65;;
21420;SDS011;10871;50.144;8.428;2023-07-20T13:43:14;3.13;;;1.90;;
21420;SDS011;10871;50.144;8.428;2023-07-20T13:45:41;5.40;;;1.92;;
21420;SDS011;10871;50.144;8.428;2023-07-20T13:48:08;2.17;;;1.60;;
21420;SDS011;10871;50.144;8.428;2023-07-20T13:50:35;2.75;;;1.70;;
21420;SDS011;10871;50.144;8.428;2023-07-20T13:53:04;2.92;;;1.73;;
21420;SDS011;10871;50.144;8.428;2023-07-20T13:55:34;5.97;;;1.80;;
21420;SDS011;10871;50.144;8.428;2023-07-20T13:58:05;2.40;;;1.58;;
21420;SDS011;10871;50.144;8.428;2023-07-20T14:00:32;3.30;;;1.60;;
21420;SDS011;10871;50.144;8.428;2023-07-20T14:03:00;2.53;;;1.50;;
21420;SDS011;10871;50.144;8.428;2023-07-20T14:05:29;4.63;;;1.48;;
21420;SDS011;10871;50.144;8.428;2023-07-20T14:08:01;5.68;;;1.80;;
21420;SDS011;10871;50.144;8.428;2023-07-20T14:10:29;1.45;;;1.23;;
21420;SDS011;10871;50.144;8.428;2023-07-20T14:12:56;2.40;;;1.70;;
21420;SDS011;10871;50.144;8.428;2023-07-20T14:15:22;1.55;;;1.40;;
21420;SDS011;10871;50.144;8.428;2023-07-20T14:17:49;2.47;;;1.58;;
21420;SDS011;10871;50.144;8.428;2023-07-20T14:20:16;3.40;;;1.48;;
21420;SDS011;10871;50.144;8.428;2023-07-20T14:22:45;2.20;;;1.70;;
21420;SDS011;10871;50.144;8.428;2023-07-20T14:25:16;3.15;;;1.60;;
21420;SDS011;10871;50.144;8.428;2023-07-20T14:27:45;2.70;;;1.60;;
21420;SDS011;10871;50.144;8.428;2023-07-20T14:30:12;2.08;;;1.30;;
21420;SDS011;10871;50.144;8.428;2023-07-20T14:32:40;1.63;;;1.40;;
21420;SDS011;10871;50.144;8.428;2023-07-20T14:35:14;4.35;;;1.50;;
21420;SDS011;10871;50.144;8.428;2023-07-20T14:37:40;1.85;;;1.20;;
21420;SDS011;10871;50.144;8.428;2023-07-20T14:40:07;3.45;;;1.52;;
21420;SDS011;10871;50.144;8.428;2023-07-20T14:42:34;2.08;;;1.40;;
21420;SDS011;10871;50.144;8.428;2023-07-20T14:45:02;2.58;;;1.40;;
21420;SDS011;10871;50.144;8.428;2023-07-20T14:47:29;3.42;;;1.25;;
21420;SDS011;10871;50.144;8.428;2023-07-20T14:49:58;1.50;;;1.35;;
21420;SDS011;10871;50.144;8.428;2023-07-20T14:52:25;1.83;;;1.52;;
21420;SDS011;10871;50.144;8.428;2023-07-20T14:54:55;4.05;;;1.70;;
21420;SDS011;10871;50.144;8.428;2023-07-20T14:57:22;3.20;;;1.58;;
21420;SDS011;10871;50.144;8.428;2023-07-20T14:59:50;2.78;;;1.55;;
21420;SDS011;10871;50.144;8.428;2023-07-20T15:02:16;2.25;;;1.60;;
21420;SDS011;10871;50.144;8.428;2023-07-20T15:04:49;1.55;;;1.42;;
21420;SDS011;10871;50.144;8.428;2023-07-20T15:07:17;5.00;;;1.87;;
21420;SDS011;10871;50.144;8.428;2023-07-20T15:09:45;3.78;;;1.65;;
21420;SDS011;10871;50.144;8.428;2023-07-20T15:12:12;2.97;;;1.67;;
21420;SDS011;10871;50.144;8.428;2023-07-20T15:14:39;1.95;;;1.60;;